createdAt,value
2019-05-17T00:00:49.661Z,6.99
2019-05-17T00:03:20.099Z,6.88
2019-05-17T00:05:50.527Z,6.81
2019-05-17T00:08:33.684Z,6.80
2019-05-17T00:10:53.205Z,6.73
2019-05-17T00:13:23.559Z,6.65
2019-05-17T00:15:56.455Z,6.68
2019-05-17T00:18:26.567Z,6.57
2019-05-17T00:20:57.159Z,6.54
2019-05-17T00:23:27.589Z,6.47
2019-05-17T00:25:58.024Z,6.41
2019-05-17T00:28:28.544Z,6.32
2019-05-17T00:30:58.976Z,6.26
2019-05-17T00:33:29.451Z,6.20
2019-05-17T00:35:59.810Z,6.11
2019-05-17T00:38:30.266Z,6.12
2019-05-17T00:41:00.721Z,6.17
2019-05-17T00:43:31.236Z,6.07
2019-05-17T00:46:01.550Z,6.06
2019-05-17T00:48:32.070Z,6.03
2019-05-17T00:51:02.609Z,5.93
2019-05-17T00:53:33.075Z,5.84
2019-05-17T00:56:03.439Z,5.79
2019-05-17T00:58:33.835Z,5.80
2019-05-17T01:01:04.155Z,5.86
2019-05-17T01:03:36.311Z,5.94
2019-05-17T01:06:06.688Z,5.92
2019-05-17T01:08:37.437Z,5.93
2019-05-17T01:11:07.878Z,5.89
2019-05-17T01:13:38.304Z,5.78
2019-05-17T01:16:08.723Z,5.73
2019-05-17T01:18:39.183Z,5.74
2019-05-17T01:21:09.684Z,5.62
2019-05-17T01:23:40.040Z,5.50
2019-05-17T01:26:10.484Z,5.39
2019-05-17T01:28:40.848Z,5.42
2019-05-17T01:31:11.170Z,5.50
2019-05-17T01:33:41.537Z,5.58
2019-05-17T01:36:11.967Z,5.67
2019-05-17T01:38:42.423Z,5.68
2019-05-17T01:41:12.753Z,5.62
2019-05-17T01:43:43.221Z,5.52
2019-05-17T01:46:13.651Z,5.57
2019-05-17T01:48:44.061Z,5.50
2019-05-17T01:51:16.750Z,5.50
2019-05-17T01:53:47.079Z,5.53
2019-05-17T01:56:17.527Z,5.45
2019-05-17T01:58:48.042Z,5.45
2019-05-17T02:01:18.473Z,5.50
2019-05-17T02:03:48.934Z,5.43
2019-05-17T02:06:19.360Z,5.39
2019-05-17T02:08:49.769Z,5.25
2019-05-17T02:11:20.170Z,5.05
2019-05-17T02:13:50.487Z,5.14
2019-05-17T02:16:20.907Z,5.16
2019-05-17T02:18:53.998Z,5.16
2019-05-17T02:21:24.476Z,5.22
2019-05-17T02:23:57.015Z,5.21
2019-05-17T02:26:27.083Z,5.10
2019-05-17T02:28:57.463Z,5.11
2019-05-17T02:31:28.745Z,5.08
2019-05-17T02:33:59.179Z,5.05
2019-05-17T02:36:29.617Z,5.02
2019-05-17T02:39:03.342Z,4.96
2019-05-17T02:41:33.292Z,4.92
2019-05-17T02:44:03.915Z,4.81
2019-05-17T02:46:34.298Z,4.75
2019-05-17T02:49:04.704Z,4.74
2019-05-17T02:51:35.106Z,4.71
2019-05-17T02:54:05.561Z,4.65
2019-05-17T02:56:36.033Z,4.59
2019-05-17T02:59:06.513Z,4.48
2019-05-17T03:01:36.987Z,4.49
2019-05-17T03:04:07.479Z,4.43
2019-05-17T03:06:37.943Z,4.32
2019-05-17T03:09:08.430Z,4.35
2019-05-17T03:11:38.837Z,4.34
2019-05-17T03:14:12.473Z,4.33
2019-05-17T03:16:43.101Z,4.37
2019-05-17T03:19:13.835Z,4.37
2019-05-17T03:21:44.274Z,4.28
2019-05-17T03:24:14.762Z,4.25
2019-05-17T03:26:45.211Z,4.27
2019-05-17T03:29:15.590Z,4.34
2019-05-17T03:31:57.489Z,4.25
2019-05-17T03:34:18.911Z,4.20
2019-05-17T03:36:49.270Z,4.21
2019-05-17T03:39:22.507Z,4.23
2019-05-17T03:41:53.552Z,4.28
2019-05-17T03:44:23.846Z,4.38
2019-05-17T03:46:54.274Z,4.48
2019-05-17T03:49:24.784Z,4.52
2019-05-17T03:51:55.288Z,4.58
2019-05-17T03:54:25.685Z,4.65
2019-05-17T03:56:56.106Z,4.68
2019-05-17T03:59:26.677Z,4.72
2019-05-17T04:01:57.078Z,4.76
2019-05-17T04:04:27.476Z,4.83
2019-05-17T04:06:57.851Z,4.92
2019-05-17T04:09:28.295Z,4.99
2019-05-17T04:11:58.936Z,5.09
2019-05-17T04:14:33.326Z,5.18
2019-05-17T04:17:03.006Z,5.30
2019-05-17T04:19:33.898Z,5.48
2019-05-17T04:22:04.403Z,5.60
2019-05-17T04:24:34.654Z,5.75
2019-05-17T04:27:05.079Z,5.89
2019-05-17T04:29:35.490Z,6.09
2019-05-17T04:32:05.880Z,6.29
2019-05-17T04:34:36.297Z,6.42
2019-05-17T04:37:06.699Z,6.59
2019-05-17T04:39:37.070Z,6.77
2019-05-17T04:42:07.581Z,6.89
2019-05-17T04:44:37.853Z,6.99
2019-05-17T04:47:08.287Z,7.13
2019-05-17T04:49:38.773Z,7.19
2019-05-17T04:52:09.205Z,7.25
2019-05-17T04:54:42.289Z,7.28
2019-05-17T04:57:13.099Z,7.36
2019-05-17T04:59:43.773Z,7.45
2019-05-17T05:02:14.320Z,7.56
2019-05-17T05:04:44.782Z,7.61
2019-05-17T05:07:15.580Z,7.69
2019-05-17T05:09:46.239Z,7.79
2019-05-17T05:12:16.709Z,7.90
2019-05-17T05:14:47.061Z,7.98
2019-05-17T05:17:17.447Z,8.06
2019-05-17T05:19:47.833Z,8.14
2019-05-17T05:22:18.390Z,8.25
2019-05-17T05:24:48.793Z,8.32
2019-05-17T05:27:19.313Z,8.56
2019-05-17T05:29:52.047Z,8.54
2019-05-17T05:32:22.129Z,8.71
2019-05-17T05:34:52.743Z,8.87
2019-05-17T05:37:23.353Z,8.96
2019-05-17T05:39:54.666Z,8.95
2019-05-17T05:42:25.184Z,9.03
2019-05-17T05:44:55.694Z,9.14
2019-05-17T05:47:25.970Z,9.33
2019-05-17T05:49:56.427Z,9.37
2019-05-17T05:52:45.924Z,9.47
2019-05-17T05:55:16.340Z,9.46
2019-05-17T05:57:46.947Z,9.58
2019-05-17T06:00:18.318Z,9.72
2019-05-17T06:02:48.661Z,9.94
2019-05-17T06:05:21.792Z,9.98
2019-05-17T06:07:52.209Z,10.21
2019-05-17T06:10:22.872Z,10.30
2019-05-17T06:12:53.259Z,10.40
2019-05-17T06:15:23.825Z,10.44
2019-05-17T06:17:54.287Z,10.42
2019-05-17T06:20:24.700Z,10.50
2019-05-17T06:22:55.107Z,10.74
2019-05-17T06:25:25.572Z,10.62
2019-05-17T06:27:55.912Z,10.93
2019-05-17T06:30:26.511Z,11.10
2019-05-17T06:32:57.010Z,11.09
2019-05-17T06:35:27.488Z,11.28
2019-05-17T06:37:58.317Z,11.47
2019-05-17T06:40:28.751Z,11.56
2019-05-17T06:43:04.194Z,11.63
2019-05-17T06:45:33.071Z,11.78
2019-05-17T06:48:03.549Z,11.91
2019-05-17T06:50:33.970Z,12.11
2019-05-17T06:53:04.425Z,12.16
2019-05-17T06:55:34.692Z,12.24
2019-05-17T06:58:05.066Z,12.55
2019-05-17T07:00:35.529Z,13.02
2019-05-17T07:03:05.994Z,13.27
2019-05-17T07:05:40.207Z,13.39
2019-05-17T07:08:10.839Z,13.67
2019-05-17T07:10:41.453Z,13.93
2019-05-17T07:13:11.991Z,13.60
2019-05-17T07:15:47.276Z,13.61
2019-05-17T07:18:14.532Z,13.86
2019-05-17T07:20:45.008Z,13.92
2019-05-17T07:23:15.266Z,13.96
2019-05-17T07:25:45.722Z,14.14
2019-05-17T07:28:16.048Z,13.96
2019-05-17T07:30:46.474Z,13.71
2019-05-17T07:33:16.932Z,14.02
2019-05-17T07:35:47.416Z,14.31
2019-05-17T07:38:19.913Z,14.24
2019-05-17T07:40:50.355Z,14.31
2019-05-17T07:43:21.014Z,14.82
2019-05-17T07:45:51.409Z,15.14
2019-05-17T07:48:21.866Z,15.37
2019-05-17T07:50:52.260Z,15.75
2019-05-17T07:53:22.733Z,16.02
2019-05-17T07:55:53.136Z,15.74
2019-05-17T07:58:23.695Z,15.66
2019-05-17T08:00:54.150Z,15.76
2019-05-17T08:03:25.058Z,15.66
2019-05-17T08:05:55.634Z,16.11
2019-05-17T08:08:26.148Z,16.42
2019-05-17T08:10:56.535Z,16.55
2019-05-17T08:13:31.313Z,16.71
2019-05-17T08:15:59.594Z,16.67
2019-05-17T08:18:30.092Z,16.72
2019-05-17T08:21:00.584Z,16.93
2019-05-17T08:23:31.027Z,17.18
2019-05-17T08:26:01.531Z,17.20
2019-05-17T08:28:31.978Z,17.22
2019-05-17T08:31:02.461Z,17.46
2019-05-17T08:33:33.031Z,17.88
2019-05-17T08:36:03.487Z,18.23
2019-05-17T08:38:33.935Z,17.96
2019-05-17T08:41:04.349Z,17.92
2019-05-17T08:43:43.163Z,18.08
2019-05-17T08:46:06.987Z,18.05
2019-05-17T08:48:37.473Z,18.12
2019-05-17T08:51:10.578Z,17.77
2019-05-17T08:53:40.152Z,17.82
2019-05-17T08:56:10.577Z,18.21
2019-05-17T08:58:41.111Z,18.19
2019-05-17T09:01:11.542Z,18.05
2019-05-17T09:03:42.001Z,17.78
2019-05-17T09:06:12.884Z,18.46
2019-05-17T09:08:43.435Z,18.92
2019-05-17T09:11:13.893Z,18.79
2019-05-17T09:13:55.596Z,19.09
2019-05-17T09:16:16.462Z,18.78
2019-05-17T09:18:47.171Z,19.45
2019-05-17T09:21:17.681Z,19.40
2019-05-17T09:23:50.218Z,20.06
2019-05-17T09:26:20.371Z,20.28
2019-05-17T09:28:50.678Z,20.51
2019-05-17T09:31:21.063Z,20.80
2019-05-17T09:33:51.559Z,20.54
2019-05-17T09:36:21.944Z,20.85
2019-05-17T09:38:52.406Z,20.79
2019-05-17T09:41:22.651Z,20.76
2019-05-17T09:43:53.096Z,20.47
2019-05-17T09:46:23.421Z,20.49
2019-05-17T09:48:53.828Z,20.71
2019-05-17T09:51:24.387Z,21.11
2019-05-17T09:53:54.675Z,20.76
2019-05-17T09:56:25.099Z,20.93
2019-05-17T09:58:55.619Z,20.87
2019-05-17T10:01:26.155Z,21.25
2019-05-17T10:03:56.674Z,21.01
2019-05-17T10:06:27.136Z,21.53
2019-05-17T10:09:00.054Z,21.79
2019-05-17T10:11:30.777Z,22.09
2019-05-17T10:14:01.531Z,21.94
2019-05-17T10:16:31.935Z,22.04
2019-05-17T10:19:02.493Z,21.42
2019-05-17T10:21:32.949Z,21.52
2019-05-17T10:24:03.407Z,21.73
2019-05-17T10:26:33.794Z,22.12
2019-05-17T10:29:04.378Z,21.59
2019-05-17T10:31:34.772Z,22.26
2019-05-17T10:34:05.214Z,22.68
2019-05-17T10:36:35.746Z,22.47
2019-05-17T10:39:09.851Z,22.31
2019-05-17T10:41:40.620Z,22.18
2019-05-17T10:44:11.270Z,22.15
2019-05-17T10:46:41.746Z,21.92
2019-05-17T10:49:12.114Z,22.41
2019-05-17T10:51:42.537Z,22.76
2019-05-17T10:54:13.022Z,23.22
2019-05-17T10:56:43.495Z,23.00
2019-05-17T10:59:14.001Z,23.57
2019-05-17T11:01:44.455Z,24.12
2019-05-17T11:04:14.863Z,24.07
2019-05-17T11:06:45.385Z,23.66
2019-05-17T11:09:15.862Z,23.56
2019-05-17T11:11:46.181Z,23.82
2019-05-17T11:14:16.651Z,23.90
2019-05-17T11:16:47.097Z,24.57
2019-05-17T11:19:17.534Z,24.98
2019-05-17T11:21:48.053Z,25.03
2019-05-17T11:24:18.455Z,25.42
2019-05-17T11:26:48.894Z,25.15
2019-05-17T11:29:19.272Z,25.23
2019-05-17T11:31:49.731Z,25.09
2019-05-17T11:34:20.175Z,25.18
2019-05-17T11:36:50.589Z,24.27
2019-05-17T11:39:21.081Z,24.56
2019-05-17T11:41:51.457Z,24.49
2019-05-17T11:44:21.897Z,25.10
2019-05-17T11:46:52.266Z,25.09
2019-05-17T11:49:22.747Z,24.93
2019-05-17T11:51:53.252Z,25.30
2019-05-17T11:54:23.666Z,25.72
2019-05-17T11:56:54.129Z,25.94
2019-05-17T11:59:24.597Z,25.73
2019-05-17T12:01:54.975Z,25.67
2019-05-17T12:04:25.459Z,25.58
2019-05-17T12:06:55.925Z,25.89
2019-05-17T12:09:36.864Z,26.04
2019-05-17T12:11:58.398Z,25.85
2019-05-17T12:14:28.861Z,26.19
2019-05-17T12:16:59.232Z,26.03
2019-05-17T12:19:29.686Z,26.28
2019-05-17T12:22:00.243Z,26.63
2019-05-17T12:24:30.597Z,27.10
2019-05-17T12:27:01.030Z,27.09
2019-05-17T12:29:31.463Z,27.26
2019-05-17T12:32:01.922Z,27.40
2019-05-17T12:34:32.347Z,27.13
2019-05-17T12:37:02.769Z,26.59
2019-05-17T12:39:33.311Z,26.81
2019-05-17T12:42:03.844Z,27.03
2019-05-17T12:44:37.195Z,27.89
2019-05-17T12:47:06.499Z,29.00
2019-05-17T12:49:36.864Z,29.20
2019-05-17T12:52:07.356Z,29.05
2019-05-17T12:54:37.854Z,28.83
2019-05-17T12:57:08.283Z,29.46
2019-05-17T12:59:39.129Z,28.98
2019-05-17T13:02:12.310Z,29.86
2019-05-17T13:04:41.642Z,31.39
2019-05-17T13:07:12.116Z,31.66
2019-05-17T13:09:42.625Z,32.13
2019-05-17T13:12:13.016Z,31.92
2019-05-17T13:14:43.460Z,31.45
2019-05-17T13:17:14.010Z,31.18
2019-05-17T13:19:44.497Z,31.49
2019-05-17T13:22:14.848Z,30.81
2019-05-17T13:24:45.326Z,31.28
2019-05-17T13:27:15.779Z,30.73
2019-05-17T13:29:46.249Z,31.64
2019-05-17T13:32:16.733Z,31.14
2019-05-17T13:34:47.149Z,31.10
2019-05-17T13:37:17.486Z,29.93
2019-05-17T13:39:47.980Z,30.06
2019-05-17T13:42:18.444Z,28.52
2019-05-17T13:44:48.853Z,27.15
2019-05-17T13:47:19.274Z,25.81
2019-05-17T13:49:49.600Z,25.24
2019-05-17T13:52:20.137Z,24.76
2019-05-17T13:54:50.557Z,24.29
2019-05-17T13:57:21.113Z,23.63
2019-05-17T13:59:51.564Z,23.15
2019-05-17T14:02:21.931Z,22.94
2019-05-17T14:04:52.356Z,22.60
2019-05-17T14:07:22.832Z,22.41
2019-05-17T14:09:53.234Z,22.31
2019-05-17T14:12:23.658Z,22.10
2019-05-17T14:14:54.079Z,22.23
2019-05-17T14:17:24.484Z,22.14
2019-05-17T14:19:55.066Z,21.84
2019-05-17T14:22:25.629Z,22.21
2019-05-17T14:24:56.076Z,22.26
2019-05-17T14:27:26.511Z,22.44
2019-05-17T14:29:56.980Z,22.37
2019-05-17T14:32:27.306Z,22.61
2019-05-17T14:34:57.717Z,23.05
2019-05-17T14:37:28.186Z,23.63
2019-05-17T14:39:58.610Z,24.30
2019-05-17T14:42:29.047Z,24.44
2019-05-17T14:44:59.470Z,24.16
2019-05-17T14:47:29.935Z,23.77
2019-05-17T14:50:00.417Z,23.49
2019-05-17T14:52:30.825Z,23.88
2019-05-17T14:55:01.320Z,23.68
2019-05-17T14:57:31.759Z,23.76
2019-05-17T15:00:02.247Z,23.45
2019-05-17T15:02:32.662Z,23.16
2019-05-17T15:05:03.343Z,22.94
2019-05-17T15:07:33.887Z,22.82
2019-05-17T15:10:04.570Z,22.96
2019-05-17T15:12:35.025Z,22.81
2019-05-17T15:15:05.622Z,22.88
2019-05-17T15:17:36.026Z,22.70
2019-05-17T15:20:07.954Z,22.60
2019-05-17T15:22:38.470Z,22.26
2019-05-17T15:25:09.383Z,22.13
2019-05-17T15:27:39.739Z,22.42
2019-05-17T15:30:10.690Z,22.44
2019-05-17T15:32:41.038Z,22.64
2019-05-17T15:35:11.516Z,22.76
2019-05-17T15:37:41.961Z,22.90
2019-05-17T15:40:12.656Z,22.78
2019-05-17T15:42:44.602Z,22.62
2019-05-17T15:45:15.416Z,22.91
2019-05-17T15:47:45.921Z,23.18
2019-05-17T15:50:18.003Z,23.10
2019-05-17T15:52:48.455Z,23.04
2019-05-17T15:55:19.386Z,23.12
2019-05-17T15:57:49.865Z,22.86
2019-05-17T16:00:20.456Z,23.07
2019-05-17T16:02:50.899Z,23.23
2019-05-17T16:05:21.310Z,23.50
2019-05-17T16:07:51.608Z,22.95
2019-05-17T16:10:22.163Z,22.73
2019-05-17T16:13:02.593Z,22.61
2019-05-17T16:15:24.739Z,22.24
2019-05-17T16:17:55.011Z,22.02
2019-05-17T16:20:25.481Z,21.66
2019-05-17T16:22:56.030Z,21.55
2019-05-17T16:25:26.467Z,21.48
2019-05-17T16:27:56.904Z,21.51
2019-05-17T16:30:27.326Z,21.62
2019-05-17T16:32:57.798Z,21.68
2019-05-17T16:35:28.275Z,21.67
2019-05-17T16:37:58.800Z,21.72
2019-05-17T16:40:29.327Z,21.68
2019-05-17T16:42:59.748Z,21.77
2019-05-17T16:45:30.193Z,22.35
2019-05-17T16:48:00.625Z,22.92
2019-05-17T16:50:30.985Z,23.25
2019-05-17T16:53:05.808Z,23.43
2019-05-17T16:55:33.911Z,23.66
2019-05-17T16:58:04.401Z,24.08
2019-05-17T17:00:37.000Z,23.57
2019-05-17T17:03:07.736Z,23.64
2019-05-17T17:05:38.159Z,23.60
2019-05-17T17:08:08.551Z,23.10
2019-05-17T17:10:39.019Z,22.89
2019-05-17T17:13:09.434Z,22.51
2019-05-17T17:15:39.834Z,22.20
2019-05-17T17:18:10.268Z,21.79
2019-05-17T17:20:40.726Z,21.45
2019-05-17T17:23:11.141Z,21.30
2019-05-17T17:25:41.612Z,21.01
2019-05-17T17:28:12.082Z,20.56
2019-05-17T17:30:42.514Z,20.34
2019-05-17T17:33:12.981Z,20.11
2019-05-17T17:35:43.458Z,19.86
2019-05-17T17:38:13.886Z,19.64
2019-05-17T17:40:44.322Z,19.54
2019-05-17T17:43:16.299Z,19.51
2019-05-17T17:45:46.794Z,19.41
2019-05-17T17:48:17.230Z,19.32
2019-05-17T17:50:47.705Z,19.25
2019-05-17T17:53:18.135Z,19.09
2019-05-17T17:55:48.611Z,19.04
2019-05-17T17:58:19.104Z,19.01
2019-05-17T18:00:49.484Z,18.87
2019-05-17T18:03:19.858Z,18.78
2019-05-17T18:05:50.305Z,18.74
2019-05-17T18:08:20.679Z,18.68
2019-05-17T18:10:51.139Z,18.48
2019-05-17T18:13:21.612Z,18.40
2019-05-17T18:15:51.955Z,18.32
2019-05-17T18:18:22.210Z,18.20
2019-05-17T18:20:52.708Z,18.04
2019-05-17T18:23:23.672Z,17.94
2019-05-17T18:25:54.198Z,17.82
2019-05-17T18:28:24.573Z,17.75
2019-05-17T18:30:55.055Z,17.67
2019-05-17T18:33:25.432Z,17.59
2019-05-17T18:35:55.776Z,17.54
2019-05-17T18:38:29.147Z,17.46
2019-05-17T18:40:59.628Z,17.40
2019-05-17T18:43:30.062Z,17.31
2019-05-17T18:46:00.454Z,17.24
2019-05-17T18:48:30.944Z,17.14
2019-05-17T18:51:01.355Z,17.01
2019-05-17T18:53:31.806Z,16.93
2019-05-17T18:56:02.282Z,16.86
2019-05-17T18:58:32.712Z,16.80
2019-05-17T19:01:03.164Z,16.78
2019-05-17T19:03:33.589Z,16.69
2019-05-17T19:06:04.083Z,16.66
2019-05-17T19:08:34.606Z,16.57
2019-05-17T19:11:05.072Z,16.56
2019-05-17T19:13:35.425Z,16.54
2019-05-17T19:16:05.864Z,16.47
2019-05-17T19:18:36.375Z,16.38
2019-05-17T19:21:06.845Z,16.33
2019-05-17T19:23:37.249Z,16.26
2019-05-17T19:26:07.613Z,16.24
2019-05-17T19:28:37.981Z,16.19
2019-05-17T19:31:08.435Z,16.18
2019-05-17T19:33:38.895Z,16.11
2019-05-17T19:36:09.336Z,16.06
2019-05-17T19:38:39.727Z,15.96
2019-05-17T19:41:10.159Z,15.87
2019-05-17T19:43:40.554Z,15.82
2019-05-17T19:46:11.010Z,15.81
2019-05-17T19:48:41.358Z,15.75
2019-05-17T19:51:11.797Z,15.79
2019-05-17T19:53:42.199Z,15.81
2019-05-17T19:56:12.659Z,15.87
2019-05-17T19:58:42.973Z,15.73
2019-05-17T20:01:13.350Z,15.63
2019-05-17T20:03:43.777Z,15.53
2019-05-17T20:06:14.177Z,15.48
2019-05-17T20:08:44.567Z,15.44
2019-05-17T20:11:14.978Z,15.35
2019-05-17T20:13:45.363Z,15.23
2019-05-17T20:16:15.846Z,15.17
2019-05-17T20:18:46.165Z,15.02
2019-05-17T20:21:16.630Z,14.92
2019-05-17T20:23:47.120Z,14.75
2019-05-17T20:26:17.500Z,14.70
2019-05-17T20:28:47.941Z,14.59
2019-05-17T20:31:18.298Z,14.56
2019-05-17T20:33:48.784Z,14.42
2019-05-17T20:36:19.205Z,14.40
2019-05-17T20:38:49.610Z,14.33
2019-05-17T20:41:39.120Z,14.32
2019-05-17T20:44:09.573Z,14.32
2019-05-17T20:46:39.915Z,14.30
2019-05-17T20:49:10.201Z,14.35
2019-05-17T20:51:40.722Z,14.37
2019-05-17T20:54:11.119Z,14.47
2019-05-17T20:56:41.589Z,14.50
2019-05-17T20:59:12.004Z,14.52
2019-05-17T21:01:42.489Z,14.50
2019-05-17T21:04:12.878Z,14.47
2019-05-17T21:06:43.209Z,14.39
2019-05-17T21:09:13.531Z,14.33
2019-05-17T21:11:43.984Z,14.27
2019-05-17T21:14:14.388Z,14.21
2019-05-17T21:16:44.761Z,14.13
2019-05-17T21:19:15.237Z,14.08
2019-05-17T21:21:45.655Z,14.04
2019-05-17T21:24:16.170Z,14.16
2019-05-17T21:26:46.700Z,14.16
2019-05-17T21:29:17.174Z,14.20
2019-05-17T21:31:47.536Z,14.15
2019-05-17T21:34:18.015Z,14.10
2019-05-17T21:36:48.447Z,14.07
2019-05-17T21:39:21.452Z,14.08
2019-05-17T21:41:51.095Z,14.05
2019-05-17T21:44:21.577Z,14.05
2019-05-17T21:47:03.801Z,14.10
2019-05-17T21:49:24.175Z,14.13
2019-05-17T21:51:54.652Z,14.17
2019-05-17T21:54:24.983Z,14.16
2019-05-17T21:56:55.363Z,14.08
2019-05-17T21:59:25.835Z,14.09
2019-05-17T22:01:57.026Z,14.05
2019-05-17T22:04:27.346Z,14.06
2019-05-17T22:06:57.811Z,14.07
2019-05-17T22:09:28.244Z,14.08
2019-05-17T22:12:02.130Z,14.13
2019-05-17T22:14:32.519Z,14.04
2019-05-17T22:17:02.940Z,13.97
2019-05-17T22:19:33.304Z,13.96
2019-05-17T22:22:03.682Z,13.93
2019-05-17T22:24:34.074Z,13.86
2019-05-17T22:27:04.531Z,13.78
2019-05-17T22:29:34.863Z,13.71
2019-05-17T22:32:05.298Z,13.63
2019-05-17T22:34:35.641Z,13.61
2019-05-17T22:37:07.327Z,13.61
2019-05-17T22:39:37.824Z,13.65
2019-05-17T22:42:08.243Z,13.62
2019-05-17T22:44:38.695Z,13.65
2019-05-17T22:47:09.197Z,13.62
2019-05-17T22:49:39.547Z,13.54
2019-05-17T22:52:10.006Z,13.51
2019-05-17T22:54:40.409Z,13.61
2019-05-17T22:57:10.797Z,13.52
2019-05-17T22:59:41.184Z,13.49
2019-05-17T23:02:11.511Z,13.42
2019-05-17T23:04:42.026Z,13.40
2019-05-17T23:07:12.503Z,13.38
2019-05-17T23:09:42.871Z,13.33
2019-05-17T23:12:13.343Z,13.33
2019-05-17T23:14:43.672Z,13.24
2019-05-17T23:17:14.155Z,13.28
2019-05-17T23:19:44.699Z,13.26
2019-05-17T23:22:15.137Z,13.23
2019-05-17T23:24:45.742Z,13.18
2019-05-17T23:27:16.192Z,13.08
2019-05-17T23:29:46.575Z,13.02
2019-05-17T23:32:16.861Z,12.92
2019-05-17T23:34:48.168Z,12.73
2019-05-17T23:37:18.625Z,12.62
2019-05-17T23:39:49.471Z,12.35
2019-05-17T23:42:19.850Z,12.35
2019-05-17T23:44:50.307Z,12.33
2019-05-17T23:47:20.734Z,12.35
2019-05-17T23:49:51.077Z,12.33
2019-05-17T23:52:21.489Z,12.25
2019-05-17T23:54:51.825Z,12.21
2019-05-17T23:57:22.273Z,11.96
2019-05-17T23:59:52.713Z,11.78
